createdAt,value
2019-03-08T00:02:31.383Z,2.10
2019-03-08T00:05:03.313Z,2.53
2019-03-08T00:07:35.742Z,1.83
2019-03-08T00:10:08.272Z,2.07
2019-03-08T00:12:40.582Z,2.83
2019-03-08T00:15:14.498Z,1.20
2019-03-08T00:17:46.871Z,2.00
2019-03-08T00:20:19.235Z,2.07
2019-03-08T00:22:51.615Z,2.00
2019-03-08T00:25:23.986Z,1.60
2019-03-08T00:27:56.355Z,1.47
2019-03-08T00:30:30.254Z,2.23
2019-03-08T00:33:02.640Z,1.70
2019-03-08T00:35:35.011Z,1.50
2019-03-08T00:38:07.384Z,1.73
2019-03-08T00:40:39.749Z,1.53
2019-03-08T00:43:12.123Z,1.67
2019-03-08T00:45:44.495Z,1.43
2019-03-08T00:48:16.866Z,1.70
2019-03-08T00:50:48.798Z,2.00
2019-03-08T00:53:21.557Z,2.07
2019-03-08T00:55:53.886Z,1.73
2019-03-08T00:58:26.255Z,1.87
2019-03-08T01:00:58.625Z,2.00
2019-03-08T01:03:30.998Z,2.20
2019-03-08T01:06:03.372Z,2.20
2019-03-08T01:08:35.730Z,2.00
2019-03-08T01:11:07.642Z,1.90
2019-03-08T01:13:41.290Z,2.50
2019-03-08T01:16:13.974Z,2.17
2019-03-08T01:18:46.346Z,1.80
2019-03-08T01:21:18.737Z,2.30
2019-03-08T01:23:52.420Z,2.40
2019-03-08T01:26:24.797Z,2.80
2019-03-08T01:28:57.175Z,2.30
2019-03-08T01:31:30.780Z,2.70
2019-03-08T01:34:03.141Z,2.20
2019-03-08T01:36:35.520Z,2.57
2019-03-08T01:39:09.734Z,2.73
2019-03-08T01:41:42.212Z,1.60
2019-03-08T01:44:14.582Z,2.20
2019-03-08T01:46:46.954Z,2.20
2019-03-08T01:49:19.845Z,1.70
2019-03-08T01:51:52.201Z,1.77
2019-03-08T01:54:24.575Z,1.73
2019-03-08T01:56:56.490Z,2.20
2019-03-08T01:59:28.919Z,2.23
2019-03-08T02:02:01.392Z,2.03
2019-03-08T02:04:33.751Z,1.97
2019-03-08T02:07:06.750Z,1.90
2019-03-08T02:09:39.128Z,2.30
2019-03-08T02:12:11.698Z,2.70
2019-03-08T02:14:44.117Z,1.37
2019-03-08T02:17:16.428Z,2.07
2019-03-08T02:19:48.801Z,1.90
2019-03-08T02:22:21.069Z,1.70
2019-03-08T02:24:53.442Z,2.20
2019-03-08T02:27:26.019Z,1.93
2019-03-08T02:29:58.395Z,2.07
2019-03-08T02:32:30.318Z,1.80
2019-03-08T02:35:03.245Z,1.77
2019-03-08T02:37:35.613Z,2.00
2019-03-08T02:40:31.229Z,1.97
2019-03-08T02:43:14.249Z,1.77
2019-03-08T02:45:46.735Z,1.67
2019-03-08T02:48:19.116Z,2.07
2019-03-08T02:50:51.474Z,1.60
2019-03-08T02:53:23.847Z,1.97
2019-03-08T02:55:56.224Z,1.80
2019-03-08T02:58:28.595Z,1.60
2019-03-08T03:01:01.273Z,1.70
2019-03-08T03:03:33.639Z,2.10
2019-03-08T03:06:05.903Z,1.40
2019-03-08T03:08:38.284Z,1.70
2019-03-08T03:11:10.656Z,1.40
2019-03-08T03:13:43.026Z,1.57
2019-03-08T03:16:16.628Z,1.80
2019-03-08T03:18:48.997Z,2.13
2019-03-08T03:21:21.417Z,1.70
2019-03-08T03:23:53.391Z,1.90
2019-03-08T03:26:26.214Z,1.67
2019-03-08T03:28:58.589Z,1.40
2019-03-08T03:31:30.853Z,1.80
2019-03-08T03:34:03.233Z,1.47
2019-03-08T03:36:37.129Z,1.30
2019-03-08T03:39:09.515Z,1.50
2019-03-08T03:41:41.884Z,1.70
2019-03-08T03:44:14.662Z,1.20
2019-03-08T03:46:47.001Z,1.50
2019-03-08T03:49:19.510Z,1.30
2019-03-08T03:51:51.883Z,1.63
2019-03-08T03:54:23.838Z,1.50
2019-03-08T03:56:56.105Z,1.50
2019-03-08T03:59:28.492Z,1.43
2019-03-08T04:02:00.852Z,1.20
2019-03-08T04:04:33.235Z,1.13
2019-03-08T04:07:05.602Z,1.10
2019-03-08T04:09:37.565Z,1.20
2019-03-08T04:12:10.449Z,1.53
2019-03-08T04:14:42.826Z,1.70
2019-03-08T04:17:15.191Z,1.33
2019-03-08T04:19:47.184Z,1.53
2019-03-08T04:22:19.528Z,1.20
2019-03-08T04:24:51.894Z,1.10
2019-03-08T04:27:24.282Z,1.47
2019-03-08T04:29:56.746Z,1.03
2019-03-08T04:32:29.315Z,1.30
2019-03-08T04:35:02.111Z,1.23
2019-03-08T04:37:34.468Z,1.63
2019-03-08T04:40:10.635Z,1.53
2019-03-08T04:42:42.561Z,1.20
2019-03-08T04:45:16.812Z,1.20
2019-03-08T04:47:49.185Z,1.40
2019-03-08T04:50:21.557Z,1.40
2019-03-08T04:52:54.950Z,1.80
2019-03-08T04:55:27.428Z,1.50
2019-03-08T04:57:59.795Z,0.90
2019-03-08T05:00:32.171Z,1.23
2019-03-08T05:03:04.097Z,1.37
2019-03-08T05:05:36.407Z,1.40
2019-03-08T05:08:08.976Z,1.37
2019-03-08T05:10:41.353Z,1.70
2019-03-08T05:13:13.716Z,1.40
2019-03-08T05:15:46.096Z,1.70
2019-03-08T05:18:18.461Z,1.47
2019-03-08T05:20:50.842Z,1.63
2019-03-08T05:23:23.216Z,1.60
2019-03-08T05:25:55.580Z,1.23
2019-03-08T05:28:27.844Z,1.63
2019-03-08T05:31:00.740Z,1.40
2019-03-08T05:33:33.003Z,1.60
2019-03-08T05:36:05.381Z,1.80
2019-03-08T05:38:37.303Z,1.80
2019-03-08T05:41:09.729Z,1.63
2019-03-08T05:43:42.119Z,1.63
2019-03-08T05:46:15.173Z,1.60
2019-03-08T05:48:47.647Z,1.70
2019-03-08T05:51:20.022Z,2.03
2019-03-08T05:53:52.318Z,1.50
2019-03-08T05:56:24.669Z,1.90
2019-03-08T05:58:57.024Z,1.43
2019-03-08T06:01:29.294Z,1.60
2019-03-08T06:04:01.680Z,2.00
2019-03-08T06:06:34.651Z,1.33
2019-03-08T06:09:08.339Z,1.60
2019-03-08T06:11:40.253Z,1.73
2019-03-08T06:14:12.690Z,1.40
2019-03-08T06:16:45.072Z,1.50
2019-03-08T06:19:17.446Z,1.27
2019-03-08T06:21:49.826Z,1.60
2019-03-08T06:24:22.287Z,1.00
2019-03-08T06:26:54.655Z,1.60
2019-03-08T06:29:27.438Z,1.20
2019-03-08T06:31:59.806Z,1.60
2019-03-08T06:34:32.904Z,0.97
2019-03-08T06:37:05.386Z,1.10
2019-03-08T06:39:37.754Z,1.53
2019-03-08T06:42:10.229Z,1.37
2019-03-08T06:44:42.179Z,1.20
2019-03-08T06:47:14.613Z,1.30
2019-03-08T06:49:46.924Z,1.30
2019-03-08T06:52:19.365Z,1.30
2019-03-08T06:54:51.782Z,1.20
2019-03-08T06:57:24.041Z,1.27
2019-03-08T06:59:57.562Z,1.57
2019-03-08T07:02:30.305Z,1.57
2019-03-08T07:05:02.893Z,1.30
2019-03-08T07:07:35.280Z,1.20
2019-03-08T07:10:10.208Z,1.20
2019-03-08T07:12:42.584Z,1.10
2019-03-08T07:15:14.958Z,1.17
2019-03-08T07:17:47.314Z,1.23
2019-03-08T07:20:22.154Z,1.03
2019-03-08T07:23:12.026Z,1.13
2019-03-08T07:26:01.838Z,1.10
2019-03-08T07:28:36.955Z,1.40
2019-03-08T07:31:26.325Z,0.70
2019-03-08T07:34:12.664Z,1.40
2019-03-08T07:36:46.625Z,0.60
2019-03-08T07:39:36.509Z,0.93
2019-03-08T07:42:17.682Z,0.90
2019-03-08T07:44:55.700Z,0.80
2019-03-08T07:47:45.682Z,0.63
2019-03-08T07:50:17.315Z,0.60
2019-03-08T07:53:07.430Z,0.80
2019-03-08T07:55:58.029Z,1.10
2019-03-08T07:58:48.306Z,0.67
2019-03-08T08:01:28.100Z,0.50
2019-03-08T08:04:00.122Z,0.73
2019-03-08T08:06:35.155Z,1.30
2019-03-08T08:09:17.570Z,1.30
2019-03-08T08:11:57.005Z,0.73
2019-03-08T08:14:39.656Z,0.73
2019-03-08T08:17:13.014Z,1.00
2019-03-08T08:19:59.198Z,0.77
2019-03-08T08:22:36.075Z,0.80
2019-03-08T08:25:18.226Z,0.87
2019-03-08T08:27:56.284Z,1.10
2019-03-08T08:30:33.067Z,1.10
2019-03-08T08:33:05.125Z,1.13
2019-03-08T08:35:39.870Z,1.10
2019-03-08T08:38:16.534Z,1.13
2019-03-08T08:40:50.507Z,0.70
2019-03-08T08:43:27.316Z,1.20
2019-03-08T08:46:19.553Z,0.90
2019-03-08T08:49:00.625Z,1.17
2019-03-08T08:51:50.711Z,0.83
2019-03-08T08:54:28.831Z,0.60
2019-03-08T08:57:05.880Z,1.40
2019-03-08T08:59:39.801Z,1.30
2019-03-08T09:02:16.358Z,0.87
2019-03-08T09:05:01.076Z,1.33
2019-03-08T09:07:46.702Z,0.60
2019-03-08T09:10:35.267Z,1.60
2019-03-08T09:13:11.832Z,0.90
2019-03-08T09:15:57.278Z,0.83
2019-03-08T09:18:47.603Z,0.83
2019-03-08T09:21:33.795Z,0.60
2019-03-08T09:24:16.610Z,1.10
2019-03-08T09:26:56.562Z,0.73
2019-03-08T09:29:30.069Z,1.10
2019-03-08T09:32:09.493Z,0.90
2019-03-08T09:34:41.517Z,1.23
2019-03-08T09:37:13.634Z,0.80
2019-03-08T09:39:45.688Z,1.00
2019-03-08T09:42:20.837Z,0.87
2019-03-08T09:44:58.634Z,1.33
2019-03-08T09:47:35.505Z,1.23
2019-03-08T09:50:27.446Z,1.23
2019-03-08T09:53:16.610Z,1.03
2019-03-08T09:55:56.557Z,1.30
2019-03-08T09:58:42.441Z,1.00
2019-03-08T10:01:16.868Z,1.67
2019-03-08T10:03:49.671Z,0.77
2019-03-08T10:06:32.863Z,1.17
2019-03-08T10:09:18.046Z,0.60
2019-03-08T10:11:51.944Z,1.20
2019-03-08T10:14:28.928Z,1.33
2019-03-08T10:17:08.649Z,1.03
2019-03-08T10:19:45.355Z,0.60
2019-03-08T10:22:35.222Z,1.33
2019-03-08T10:25:26.343Z,1.90
2019-03-08T10:27:57.972Z,1.90
2019-03-08T10:30:43.899Z,2.27
2019-03-08T10:33:32.853Z,1.20
2019-03-08T10:36:04.904Z,1.30
2019-03-08T10:38:38.819Z,0.90
2019-03-08T10:41:15.488Z,1.60
2019-03-08T10:43:52.373Z,1.60
2019-03-08T10:46:31.771Z,1.90
2019-03-08T10:49:11.859Z,2.00
2019-03-08T10:51:45.869Z,1.30
2019-03-08T10:54:31.662Z,1.17
2019-03-08T10:57:08.528Z,1.43
2019-03-08T10:59:42.492Z,1.57
2019-03-08T11:02:31.715Z,1.60
2019-03-08T11:05:05.587Z,0.80
2019-03-08T11:07:44.467Z,1.33
2019-03-08T11:10:30.221Z,2.00
2019-03-08T11:13:13.458Z,1.50
2019-03-08T11:15:59.553Z,1.13
2019-03-08T11:18:49.536Z,1.90
2019-03-08T11:21:38.496Z,1.00
2019-03-08T11:24:22.851Z,1.43
2019-03-08T11:27:12.415Z,0.97
2019-03-08T11:29:58.520Z,1.00
2019-03-08T11:32:33.247Z,1.87
2019-03-08T11:35:12.366Z,1.23
2019-03-08T11:37:46.282Z,1.97
2019-03-08T11:40:35.132Z,1.50
2019-03-08T11:43:17.656Z,1.20
2019-03-08T11:46:07.935Z,0.80
2019-03-08T11:48:44.819Z,1.80
2019-03-08T11:51:32.042Z,1.70
2019-03-08T11:54:15.369Z,1.40
2019-03-08T11:56:55.870Z,1.23
2019-03-08T11:59:22.985Z,2.50
2019-03-08T12:02:08.551Z,1.40
2019-03-08T12:04:42.468Z,1.37
2019-03-08T12:07:16.367Z,1.57
2019-03-08T12:10:06.775Z,1.10
2019-03-08T12:12:40.681Z,1.40
2019-03-08T12:15:16.422Z,1.23
2019-03-08T12:17:48.385Z,1.03
2019-03-08T12:20:28.539Z,1.50
2019-03-08T12:23:17.092Z,0.80
2019-03-08T12:25:53.864Z,1.27
2019-03-08T12:28:25.945Z,1.80
2019-03-08T12:31:04.039Z,2.07
2019-03-08T12:33:54.126Z,2.00
2019-03-08T12:36:36.844Z,1.40
2019-03-08T12:39:19.256Z,1.70
2019-03-08T12:41:53.153Z,1.83
2019-03-08T12:44:29.480Z,1.13
2019-03-08T12:47:15.226Z,2.47
2019-03-08T12:50:04.691Z,1.30
2019-03-08T12:52:55.004Z,1.13
2019-03-08T12:55:31.640Z,1.33
2019-03-08T12:58:19.073Z,1.47
2019-03-08T13:00:55.840Z,1.80
2019-03-08T13:03:45.827Z,1.47
2019-03-08T13:06:19.733Z,1.93
2019-03-08T13:09:02.224Z,2.20
2019-03-08T13:11:36.060Z,1.93
2019-03-08T13:14:08.451Z,2.20
2019-03-08T13:16:40.806Z,3.10
2019-03-08T13:19:13.163Z,2.70
2019-03-08T13:21:45.531Z,2.53
2019-03-08T13:24:17.918Z,3.90
2019-03-08T13:26:50.178Z,3.93
2019-03-08T13:29:22.565Z,5.73
2019-03-08T13:31:54.937Z,2.80
2019-03-08T13:34:27.293Z,3.80
2019-03-08T13:37:00.179Z,4.60
2019-03-08T13:39:32.571Z,3.43
2019-03-08T13:42:04.934Z,2.60
2019-03-08T13:44:37.402Z,3.50
2019-03-08T13:47:09.975Z,1.73
2019-03-08T13:49:42.361Z,2.43
2019-03-08T13:52:14.618Z,2.73
2019-03-08T13:54:47.205Z,2.67
2019-03-08T13:57:19.462Z,2.67
2019-03-08T13:59:51.833Z,3.00
2019-03-08T14:02:23.770Z,2.70
2019-03-08T14:04:55.756Z,3.20
2019-03-08T14:07:28.862Z,2.70
2019-03-08T14:10:01.256Z,2.20
2019-03-08T14:12:33.277Z,4.73
2019-03-08T14:15:08.834Z,3.00
2019-03-08T14:17:41.209Z,2.60
2019-03-08T14:20:26.488Z,2.67
2019-03-08T14:22:59.121Z,3.50
2019-03-08T14:25:31.536Z,3.20
2019-03-08T14:28:03.900Z,3.40
2019-03-08T14:30:47.025Z,5.50
2019-03-08T14:33:19.158Z,3.07
2019-03-08T14:35:51.562Z,4.33
2019-03-08T14:38:23.940Z,3.70
2019-03-08T14:41:04.601Z,4.13
2019-03-08T14:43:52.492Z,3.20
2019-03-08T14:46:27.168Z,4.60
2019-03-08T14:48:59.962Z,1.73
2019-03-08T14:51:32.329Z,2.00
2019-03-08T14:54:06.049Z,2.00
2019-03-08T14:56:38.706Z,1.90
2019-03-08T14:59:14.908Z,2.73
2019-03-08T15:01:45.088Z,3.30
2019-03-08T15:04:17.103Z,2.87
2019-03-08T15:06:49.421Z,3.57
2019-03-08T15:09:21.789Z,6.80
2019-03-08T15:11:55.957Z,3.73
2019-03-08T15:14:30.242Z,4.03
2019-03-08T15:17:08.950Z,3.20
2019-03-08T15:19:39.805Z,2.40
2019-03-08T15:22:10.096Z,4.20
2019-03-08T15:24:42.474Z,3.17
2019-03-08T15:27:14.942Z,2.83
2019-03-08T15:29:54.206Z,2.50
2019-03-08T15:32:20.814Z,4.33
2019-03-08T15:34:53.249Z,8.13
2019-03-08T15:37:25.667Z,5.63
2019-03-08T15:39:59.159Z,4.20
2019-03-08T15:42:31.542Z,3.50
2019-03-08T15:45:05.791Z,6.37
2019-03-08T15:47:38.323Z,5.43
2019-03-08T15:50:20.110Z,6.43
2019-03-08T15:52:52.489Z,7.00
2019-03-08T15:55:24.858Z,7.07
2019-03-08T15:57:57.241Z,5.40
2019-03-08T16:00:29.608Z,4.47
2019-03-08T16:03:02.083Z,3.33
2019-03-08T16:05:34.459Z,4.47
2019-03-08T16:08:06.820Z,4.67
2019-03-08T16:10:39.250Z,3.17
2019-03-08T16:13:11.662Z,5.60
2019-03-08T16:15:44.035Z,2.83
2019-03-08T16:18:17.927Z,3.70
2019-03-08T16:20:50.521Z,3.10
2019-03-08T16:23:22.902Z,4.87
2019-03-08T16:25:55.273Z,4.67
2019-03-08T16:28:27.650Z,4.00
2019-03-08T16:31:03.720Z,3.20
2019-03-08T16:33:40.330Z,5.20
2019-03-08T16:36:29.055Z,4.70
2019-03-08T16:39:12.705Z,5.90
2019-03-08T16:41:49.133Z,4.80
2019-03-08T16:44:40.854Z,5.00
2019-03-08T16:47:31.054Z,5.03
2019-03-08T16:50:15.094Z,9.67
2019-03-08T16:53:02.113Z,5.83
2019-03-08T16:55:35.370Z,4.90
2019-03-08T16:58:18.189Z,6.00
2019-03-08T17:01:07.177Z,4.60
2019-03-08T17:03:57.070Z,6.40
2019-03-08T17:06:46.840Z,5.50
2019-03-08T17:09:23.525Z,5.00
2019-03-08T17:11:57.444Z,5.70
2019-03-08T17:14:47.311Z,6.43
2019-03-08T17:17:32.167Z,6.23
2019-03-08T17:20:16.923Z,4.90
2019-03-08T17:23:06.980Z,4.93
2019-03-08T17:25:56.704Z,5.73
2019-03-08T17:28:33.379Z,5.87
2019-03-08T17:31:07.376Z,6.43
2019-03-08T17:33:51.643Z,7.97
2019-03-08T17:36:34.751Z,10.53
2019-03-08T17:39:20.650Z,8.43
2019-03-08T17:42:03.467Z,7.67
2019-03-08T17:44:35.943Z,9.17
2019-03-08T17:47:21.364Z,9.67
2019-03-08T17:50:01.461Z,4.80
2019-03-08T17:52:46.947Z,3.80
2019-03-08T17:55:20.956Z,3.90
2019-03-08T17:58:10.534Z,2.77
2019-03-08T18:00:59.495Z,3.83
2019-03-08T18:03:35.864Z,3.03
2019-03-08T18:06:12.360Z,2.73
2019-03-08T18:08:46.239Z,3.53
2019-03-08T18:11:18.513Z,3.20
2019-03-08T18:13:58.039Z,3.60
2019-03-08T18:16:48.128Z,7.93
2019-03-08T18:19:27.871Z,4.97
2019-03-08T18:21:59.943Z,5.60
2019-03-08T18:24:52.304Z,6.93
2019-03-08T18:27:29.682Z,4.10
2019-03-08T18:30:06.876Z,7.37
2019-03-08T18:32:40.058Z,6.60
2019-03-08T18:35:18.055Z,5.07
2019-03-08T18:37:49.820Z,4.43
2019-03-08T18:40:29.955Z,5.17
2019-03-08T18:43:03.917Z,4.93
2019-03-08T18:45:41.158Z,3.53
2019-03-08T18:48:31.546Z,5.83
2019-03-08T18:51:18.363Z,4.93
2019-03-08T18:54:10.090Z,7.33
2019-03-08T18:57:02.011Z,8.63
2019-03-08T18:59:34.085Z,6.53
2019-03-08T19:02:08.908Z,7.90
2019-03-08T19:04:42.790Z,7.37
2019-03-08T19:07:16.722Z,6.17
2019-03-08T19:10:07.118Z,8.13
2019-03-08T19:12:44.103Z,7.27
2019-03-08T19:15:27.938Z,5.40
2019-03-08T19:18:18.333Z,5.03
2019-03-08T19:21:06.892Z,5.70
2019-03-08T19:23:46.153Z,7.03
2019-03-08T19:26:25.871Z,4.17
2019-03-08T19:28:59.769Z,6.60
2019-03-08T19:31:36.658Z,4.07
2019-03-08T19:34:08.720Z,4.97
2019-03-08T19:36:43.760Z,6.47
2019-03-08T19:39:17.668Z,6.37
2019-03-08T19:41:52.584Z,7.27
2019-03-08T19:44:26.606Z,8.20
2019-03-08T19:47:09.409Z,9.67
2019-03-08T19:49:45.408Z,8.17
2019-03-08T19:52:20.508Z,8.20
2019-03-08T19:54:54.418Z,9.13
2019-03-08T19:57:37.181Z,8.70
2019-03-08T20:00:33.676Z,8.10
2019-03-08T20:03:07.675Z,9.10
2019-03-08T20:05:56.431Z,8.70
2019-03-08T20:08:39.058Z,9.27
2019-03-08T20:11:15.622Z,8.90
2019-03-08T20:14:04.474Z,10.90
2019-03-08T20:16:44.115Z,9.97
2019-03-08T20:19:18.148Z,8.50
2019-03-08T20:21:52.348Z,5.83
2019-03-08T20:24:33.746Z,6.23
2019-03-08T20:27:07.839Z,7.17
2019-03-08T20:29:41.846Z,6.40
2019-03-08T20:32:30.092Z,7.07
2019-03-08T20:35:02.163Z,8.67
2019-03-08T20:37:40.570Z,7.70
2019-03-08T20:40:15.603Z,7.10
2019-03-08T20:42:52.388Z,7.30
2019-03-08T20:45:26.700Z,6.63
2019-03-08T20:47:59.072Z,5.90
2019-03-08T20:50:31.156Z,3.97
2019-03-08T20:53:03.513Z,6.30
2019-03-08T20:55:35.504Z,4.97
2019-03-08T20:58:07.435Z,6.63
2019-03-08T21:00:39.418Z,6.93
2019-03-08T21:03:11.763Z,6.53
2019-03-08T21:05:44.133Z,7.13
2019-03-08T21:08:16.726Z,8.90
2019-03-08T21:10:49.093Z,7.30
2019-03-08T21:13:22.893Z,7.43
2019-03-08T21:15:56.707Z,7.93
2019-03-08T21:18:29.379Z,7.23
2019-03-08T21:21:02.056Z,6.03
2019-03-08T21:23:33.976Z,8.83
2019-03-08T21:26:06.393Z,6.40
2019-03-08T21:28:38.774Z,7.03
2019-03-08T21:31:11.132Z,6.20
2019-03-08T21:33:43.062Z,7.27
2019-03-08T21:36:15.468Z,6.13
2019-03-08T21:38:50.810Z,5.90
2019-03-08T21:41:23.176Z,4.50
2019-03-08T21:43:55.568Z,5.73
2019-03-08T21:46:27.926Z,5.60
2019-03-08T21:48:59.845Z,7.07
2019-03-08T21:51:33.125Z,6.83
2019-03-08T21:54:05.446Z,5.70
2019-03-08T21:56:37.818Z,4.73
2019-03-08T21:59:11.433Z,5.10
2019-03-08T22:01:43.802Z,3.83
2019-03-08T22:04:17.705Z,6.20
2019-03-08T22:06:50.141Z,4.20
2019-03-08T22:09:39.595Z,3.37
2019-03-08T22:12:12.021Z,5.57
2019-03-08T22:14:43.955Z,3.53
2019-03-08T22:17:16.376Z,5.93
2019-03-08T22:19:49.039Z,7.10
2019-03-08T22:22:21.421Z,4.47
2019-03-08T22:24:53.957Z,5.03
2019-03-08T22:27:27.902Z,4.70
2019-03-08T22:30:00.678Z,4.50
2019-03-08T22:32:34.168Z,3.47
2019-03-08T22:35:07.315Z,5.67
2019-03-08T22:37:39.730Z,3.67
2019-03-08T22:40:13.843Z,3.07
2019-03-08T22:42:46.549Z,4.00
2019-03-08T22:45:18.790Z,4.20
2019-03-08T22:47:51.173Z,4.40
2019-03-08T22:50:23.847Z,4.10
2019-03-08T22:52:56.226Z,4.00
2019-03-08T22:55:28.485Z,5.57
2019-03-08T22:58:00.860Z,5.03
2019-03-08T23:00:54.836Z,3.57
2019-03-08T23:03:29.656Z,4.97
2019-03-08T23:06:03.266Z,4.77
2019-03-08T23:08:36.055Z,4.73
2019-03-08T23:11:08.419Z,3.83
2019-03-08T23:13:40.793Z,3.60
2019-03-08T23:16:13.276Z,4.80
2019-03-08T23:18:45.846Z,3.97
2019-03-08T23:21:18.223Z,4.37
2019-03-08T23:23:50.707Z,5.47
2019-03-08T23:26:23.076Z,2.87
2019-03-08T23:29:10.280Z,5.60
2019-03-08T23:31:47.166Z,6.37
2019-03-08T23:34:19.543Z,4.00
2019-03-08T23:36:52.113Z,4.70
2019-03-08T23:39:24.474Z,4.87
2019-03-08T23:41:56.853Z,3.50
2019-03-08T23:44:29.231Z,4.33
2019-03-08T23:47:05.074Z,4.80
2019-03-08T23:49:38.980Z,3.87
2019-03-08T23:52:11.363Z,2.57
2019-03-08T23:54:43.727Z,2.93
2019-03-08T23:57:16.612Z,3.87
2019-03-08T23:59:48.991Z,3.80
